Olomouc, Czech Republic
Current Conditions -  °F | °C
As of 11:30 AM on Monday 24 Nov 2014 (Local Time) from LKMT Reporting Station
Clear Clear  
Wind Chill: 37°   Ceiling: Unl
Heat Index: 37°   Visibility: 4mi
Dew Point: 32°   Wind: 3mph
Humidity: 81%   Direction: 30°NNE
Pressure: 30.3"   Gusts: NA
Location:  49.61°N, 17.25°E
Report Text: LKMT 240930Z 03003KT 010V070 6000 NSC 03/00 Q1026 NOSIG
Loading
Personal Weather Stations






























Interactive Weather Map New forecast layout! Learn more

10-Day Weather Forecast

Advertisements
Track Severe Weather on mobile